sensor_id;sensor_type;location;lat;lon;timestamp;P1;durP1;ratioP1;P2;durP2;ratioP2
17935;SDS011;9093;52.062;4.508;2022-12-19T00:01:23;11.23;;;5.82;;
17935;SDS011;9093;52.062;4.508;2022-12-19T00:04:07;13.85;;;6.22;;
17935;SDS011;9093;52.062;4.508;2022-12-19T00:06:50;13.73;;;6.45;;
17935;SDS011;9093;52.062;4.508;2022-12-19T00:09:30;13.90;;;6.63;;
17935;SDS011;9093;52.062;4.508;2022-12-19T00:12:10;21.20;;;6.85;;
17935;SDS011;9093;52.062;4.508;2022-12-19T00:14:51;11.98;;;7.13;;
17935;SDS011;9093;52.062;4.508;2022-12-19T00:17:31;13.15;;;6.97;;
17935;SDS011;9093;52.062;4.508;2022-12-19T00:20:12;12.38;;;5.07;;
17935;SDS011;9093;52.062;4.508;2022-12-19T00:22:53;11.13;;;5.83;;
17935;SDS011;9093;52.062;4.508;2022-12-19T00:25:34;14.00;;;5.85;;
17935;SDS011;9093;52.062;4.508;2022-12-19T00:28:14;12.85;;;5.97;;
17935;SDS011;9093;52.062;4.508;2022-12-19T00:30:54;19.75;;;7.25;;
17935;SDS011;9093;52.062;4.508;2022-12-19T00:33:35;18.00;;;6.60;;
17935;SDS011;9093;52.062;4.508;2022-12-19T00:36:19;19.98;;;6.40;;
17935;SDS011;9093;52.062;4.508;2022-12-19T00:39:01;8.57;;;5.40;;
17935;SDS011;9093;52.062;4.508;2022-12-19T00:41:43;10.98;;;5.38;;
17935;SDS011;9093;52.062;4.508;2022-12-19T00:44:23;11.20;;;5.93;;
17935;SDS011;9093;52.062;4.508;2022-12-19T00:47:03;12.10;;;6.15;;
17935;SDS011;9093;52.062;4.508;2022-12-19T00:49:43;19.27;;;8.18;;
17935;SDS011;9093;52.062;4.508;2022-12-19T00:52:24;13.02;;;6.63;;
17935;SDS011;9093;52.062;4.508;2022-12-19T00:55:04;14.20;;;7.43;;
17935;SDS011;9093;52.062;4.508;2022-12-19T00:57:45;15.30;;;7.25;;
17935;SDS011;9093;52.062;4.508;2022-12-19T01:00:25;13.98;;;7.55;;
17935;SDS011;9093;52.062;4.508;2022-12-19T01:03:05;14.73;;;7.65;;
17935;SDS011;9093;52.062;4.508;2022-12-19T01:05:46;13.60;;;5.90;;
17935;SDS011;9093;52.062;4.508;2022-12-19T01:08:26;19.35;;;6.78;;
17935;SDS011;9093;52.062;4.508;2022-12-19T01:11:06;15.32;;;8.13;;
17935;SDS011;9093;52.062;4.508;2022-12-19T01:13:47;14.70;;;6.22;;
17935;SDS011;9093;52.062;4.508;2022-12-19T01:16:27;16.98;;;5.88;;
17935;SDS011;9093;52.062;4.508;2022-12-19T01:19:08;14.30;;;5.82;;
17935;SDS011;9093;52.062;4.508;2022-12-19T01:21:49;10.90;;;5.45;;
17935;SDS011;9093;52.062;4.508;2022-12-19T01:24:29;20.00;;;6.32;;
17935;SDS011;9093;52.062;4.508;2022-12-19T01:27:10;11.68;;;5.35;;
17935;SDS011;9093;52.062;4.508;2022-12-19T01:29:50;17.52;;;5.88;;
17935;SDS011;9093;52.062;4.508;2022-12-19T01:32:32;15.80;;;6.88;;
17935;SDS011;9093;52.062;4.508;2022-12-19T01:35:13;11.82;;;6.10;;
17935;SDS011;9093;52.062;4.508;2022-12-19T01:37:54;15.77;;;6.15;;
17935;SDS011;9093;52.062;4.508;2022-12-19T01:40:34;18.25;;;6.82;;
17935;SDS011;9093;52.062;4.508;2022-12-19T01:43:15;13.32;;;5.95;;
17935;SDS011;9093;52.062;4.508;2022-12-19T01:45:57;13.48;;;6.70;;
17935;SDS011;9093;52.062;4.508;2022-12-19T01:48:41;18.38;;;6.55;;
17935;SDS011;9093;52.062;4.508;2022-12-19T01:51:23;16.17;;;6.68;;
17935;SDS011;9093;52.062;4.508;2022-12-19T01:54:14;19.75;;;6.32;;
17935;SDS011;9093;52.062;4.508;2022-12-19T01:57:01;15.52;;;6.15;;
17935;SDS011;9093;52.062;4.508;2022-12-19T01:59:49;14.13;;;6.32;;
17935;SDS011;9093;52.062;4.508;2022-12-19T02:02:42;19.23;;;7.40;;
17935;SDS011;9093;52.062;4.508;2022-12-19T02:05:27;13.20;;;5.55;;
17935;SDS011;9093;52.062;4.508;2022-12-19T02:08:09;14.10;;;5.47;;
17935;SDS011;9093;52.062;4.508;2022-12-19T02:10:50;12.90;;;6.22;;
17935;SDS011;9093;52.062;4.508;2022-12-19T02:13:30;11.85;;;5.57;;
17935;SDS011;9093;52.062;4.508;2022-12-19T02:22:29;15.05;;;6.70;;
17935;SDS011;9093;52.062;4.508;2022-12-19T02:31:59;19.27;;;5.65;;
17935;SDS011;9093;52.062;4.508;2022-12-19T02:44:26;7.60;;;4.65;;
17935;SDS011;9093;52.062;4.508;2022-12-19T02:47:10;8.18;;;4.75;;
17935;SDS011;9093;52.062;4.508;2022-12-19T02:49:52;8.87;;;5.17;;
17935;SDS011;9093;52.062;4.508;2022-12-19T02:55:14;10.67;;;5.43;;
17935;SDS011;9093;52.062;4.508;2022-12-19T02:58:02;12.02;;;4.70;;
17935;SDS011;9093;52.062;4.508;2022-12-19T03:00:58;8.63;;;5.15;;
17935;SDS011;9093;52.062;4.508;2022-12-19T03:07:02;12.68;;;5.50;;
17935;SDS011;9093;52.062;4.508;2022-12-19T03:10:23;11.52;;;5.38;;
17935;SDS011;9093;52.062;4.508;2022-12-19T03:13:07;11.13;;;4.35;;
17935;SDS011;9093;52.062;4.508;2022-12-19T03:15:50;8.63;;;3.95;;
17935;SDS011;9093;52.062;4.508;2022-12-19T03:18:31;6.10;;;3.40;;
17935;SDS011;9093;52.062;4.508;2022-12-19T03:24:00;9.05;;;4.65;;
17935;SDS011;9093;52.062;4.508;2022-12-19T03:29:33;9.02;;;4.13;;
17935;SDS011;9093;52.062;4.508;2022-12-19T03:32:21;12.38;;;5.07;;
17935;SDS011;9093;52.062;4.508;2022-12-19T03:37:47;6.68;;;4.35;;
17935;SDS011;9093;52.062;4.508;2022-12-19T03:43:12;8.07;;;4.20;;
17935;SDS011;9093;52.062;4.508;2022-12-19T03:45:55;7.35;;;3.72;;
17935;SDS011;9093;52.062;4.508;2022-12-19T03:48:44;6.68;;;3.95;;
17935;SDS011;9093;52.062;4.508;2022-12-19T03:54:45;6.80;;;3.38;;
17935;SDS011;9093;52.062;4.508;2022-12-19T03:57:45;5.50;;;3.33;;
17935;SDS011;9093;52.062;4.508;2022-12-19T04:00:33;7.45;;;4.60;;
17935;SDS011;9093;52.062;4.508;2022-12-19T04:03:15;8.77;;;4.22;;
17935;SDS011;9093;52.062;4.508;2022-12-19T04:05:58;7.68;;;3.60;;
17935;SDS011;9093;52.062;4.508;2022-12-19T04:08:40;5.95;;;3.58;;
17935;SDS011;9093;52.062;4.508;2022-12-19T04:11:22;5.70;;;3.20;;
17935;SDS011;9093;52.062;4.508;2022-12-19T04:14:07;8.48;;;4.07;;
17935;SDS011;9093;52.062;4.508;2022-12-19T04:20:00;6.82;;;3.90;;
17935;SDS011;9093;52.062;4.508;2022-12-19T04:25:51;8.57;;;4.25;;
17935;SDS011;9093;52.062;4.508;2022-12-19T04:28:42;7.07;;;4.13;;
17935;SDS011;9093;52.062;4.508;2022-12-19T04:31:36;8.82;;;4.10;;
17935;SDS011;9093;52.062;4.508;2022-12-19T04:34:17;6.22;;;3.45;;
17935;SDS011;9093;52.062;4.508;2022-12-19T04:37:00;4.28;;;3.00;;
17935;SDS011;9093;52.062;4.508;2022-12-19T04:39:40;8.32;;;4.00;;
17935;SDS011;9093;52.062;4.508;2022-12-19T04:42:20;7.72;;;3.63;;
17935;SDS011;9093;52.062;4.508;2022-12-19T04:45:01;6.85;;;3.42;;
17935;SDS011;9093;52.062;4.508;2022-12-19T04:47:41;5.85;;;3.33;;
17935;SDS011;9093;52.062;4.508;2022-12-19T04:50:21;6.30;;;4.25;;
17935;SDS011;9093;52.062;4.508;2022-12-19T04:53:02;4.95;;;2.95;;
17935;SDS011;9093;52.062;4.508;2022-12-19T04:55:42;6.60;;;3.90;;
17935;SDS011;9093;52.062;4.508;2022-12-19T04:58:23;6.20;;;3.55;;
17935;SDS011;9093;52.062;4.508;2022-12-19T05:01:05;5.82;;;3.40;;
17935;SDS011;9093;52.062;4.508;2022-12-19T05:03:47;12.50;;;3.47;;
17935;SDS011;9093;52.062;4.508;2022-12-19T05:06:27;6.45;;;3.72;;
17935;SDS011;9093;52.062;4.508;2022-12-19T05:09:08;5.80;;;3.42;;
17935;SDS011;9093;52.062;4.508;2022-12-19T05:11:49;8.57;;;4.23;;
17935;SDS011;9093;52.062;4.508;2022-12-19T05:14:30;5.38;;;3.78;;
17935;SDS011;9093;52.062;4.508;2022-12-19T05:17:10;7.47;;;3.38;;
17935;SDS011;9093;52.062;4.508;2022-12-19T05:19:50;6.88;;;3.53;;
17935;SDS011;9093;52.062;4.508;2022-12-19T05:22:31;6.45;;;3.63;;
17935;SDS011;9093;52.062;4.508;2022-12-19T05:25:11;6.30;;;3.33;;
17935;SDS011;9093;52.062;4.508;2022-12-19T05:27:51;9.63;;;3.75;;
17935;SDS011;9093;52.062;4.508;2022-12-19T05:30:31;8.88;;;3.92;;
17935;SDS011;9093;52.062;4.508;2022-12-19T05:33:12;7.70;;;3.65;;
17935;SDS011;9093;52.062;4.508;2022-12-19T05:35:52;11.98;;;4.38;;
17935;SDS011;9093;52.062;4.508;2022-12-19T05:38:33;7.32;;;4.00;;
17935;SDS011;9093;52.062;4.508;2022-12-19T05:41:14;7.53;;;4.00;;
17935;SDS011;9093;52.062;4.508;2022-12-19T05:43:56;9.00;;;4.85;;
17935;SDS011;9093;52.062;4.508;2022-12-19T05:46:37;11.05;;;4.43;;
17935;SDS011;9093;52.062;4.508;2022-12-19T05:49:17;6.30;;;3.55;;
17935;SDS011;9093;52.062;4.508;2022-12-19T05:52:00;7.20;;;3.13;;
17935;SDS011;9093;52.062;4.508;2022-12-19T05:54:43;13.00;;;3.90;;
17935;SDS011;9093;52.062;4.508;2022-12-19T05:57:23;8.60;;;4.00;;
17935;SDS011;9093;52.062;4.508;2022-12-19T06:00:04;8.10;;;4.10;;
17935;SDS011;9093;52.062;4.508;2022-12-19T06:02:44;7.47;;;4.05;;
17935;SDS011;9093;52.062;4.508;2022-12-19T06:05:25;6.40;;;3.75;;
17935;SDS011;9093;52.062;4.508;2022-12-19T06:08:05;6.40;;;4.28;;
17935;SDS011;9093;52.062;4.508;2022-12-19T06:10:46;6.00;;;4.07;;
17935;SDS011;9093;52.062;4.508;2022-12-19T06:13:26;6.38;;;3.78;;
17935;SDS011;9093;52.062;4.508;2022-12-19T06:16:11;6.85;;;3.65;;
17935;SDS011;9093;52.062;4.508;2022-12-19T06:18:53;9.10;;;3.67;;
17935;SDS011;9093;52.062;4.508;2022-12-19T06:21:33;9.82;;;4.60;;
17935;SDS011;9093;52.062;4.508;2022-12-19T06:24:14;5.55;;;3.47;;
17935;SDS011;9093;52.062;4.508;2022-12-19T06:26:55;6.20;;;3.70;;
17935;SDS011;9093;52.062;4.508;2022-12-19T06:29:35;7.40;;;3.45;;
17935;SDS011;9093;52.062;4.508;2022-12-19T06:32:15;9.88;;;4.15;;
17935;SDS011;9093;52.062;4.508;2022-12-19T06:34:56;7.88;;;4.50;;
17935;SDS011;9093;52.062;4.508;2022-12-19T06:37:36;9.38;;;5.43;;
17935;SDS011;9093;52.062;4.508;2022-12-19T06:40:16;11.48;;;4.75;;
17935;SDS011;9093;52.062;4.508;2022-12-19T06:43:16;6.90;;;3.85;;
17935;SDS011;9093;52.062;4.508;2022-12-19T06:45:57;10.32;;;3.88;;
17935;SDS011;9093;52.062;4.508;2022-12-19T06:48:37;10.35;;;4.22;;
17935;SDS011;9093;52.062;4.508;2022-12-19T06:51:17;6.88;;;3.70;;
17935;SDS011;9093;52.062;4.508;2022-12-19T06:53:58;8.40;;;3.10;;
17935;SDS011;9093;52.062;4.508;2022-12-19T06:56:40;10.82;;;3.67;;
17935;SDS011;9093;52.062;4.508;2022-12-19T06:59:21;6.53;;;3.80;;
17935;SDS011;9093;52.062;4.508;2022-12-19T07:02:08;8.38;;;3.78;;
17935;SDS011;9093;52.062;4.508;2022-12-19T07:05:13;8.43;;;3.95;;
17935;SDS011;9093;52.062;4.508;2022-12-19T07:07:53;7.85;;;3.35;;
17935;SDS011;9093;52.062;4.508;2022-12-19T07:10:34;8.45;;;3.58;;
17935;SDS011;9093;52.062;4.508;2022-12-19T07:13:14;6.53;;;3.20;;
17935;SDS011;9093;52.062;4.508;2022-12-19T07:15:59;6.72;;;3.53;;
17935;SDS011;9093;52.062;4.508;2022-12-19T07:18:41;8.23;;;4.07;;
17935;SDS011;9093;52.062;4.508;2022-12-19T07:21:21;6.20;;;3.13;;
17935;SDS011;9093;52.062;4.508;2022-12-19T07:24:02;7.82;;;3.80;;
17935;SDS011;9093;52.062;4.508;2022-12-19T07:26:43;6.47;;;3.33;;
17935;SDS011;9093;52.062;4.508;2022-12-19T07:29:24;5.13;;;3.00;;
17935;SDS011;9093;52.062;4.508;2022-12-19T07:32:07;6.03;;;3.53;;
17935;SDS011;9093;52.062;4.508;2022-12-19T07:34:47;8.18;;;3.55;;
17935;SDS011;9093;52.062;4.508;2022-12-19T07:37:28;6.03;;;3.17;;
17935;SDS011;9093;52.062;4.508;2022-12-19T07:40:08;8.75;;;3.97;;
17935;SDS011;9093;52.062;4.508;2022-12-19T07:42:50;11.27;;;3.63;;
17935;SDS011;9093;52.062;4.508;2022-12-19T07:45:30;6.03;;;3.05;;
17935;SDS011;9093;52.062;4.508;2022-12-19T07:48:12;9.43;;;3.88;;
17935;SDS011;9093;52.062;4.508;2022-12-19T07:50:52;7.40;;;3.40;;
17935;SDS011;9093;52.062;4.508;2022-12-19T07:53:32;8.13;;;3.60;;
17935;SDS011;9093;52.062;4.508;2022-12-19T07:56:12;6.90;;;3.40;;
17935;SDS011;9093;52.062;4.508;2022-12-19T07:58:54;6.38;;;3.47;;
17935;SDS011;9093;52.062;4.508;2022-12-19T08:01:34;8.25;;;3.38;;
17935;SDS011;9093;52.062;4.508;2022-12-19T08:04:14;20.60;;;3.72;;
17935;SDS011;9093;52.062;4.508;2022-12-19T08:06:54;7.32;;;3.10;;
17935;SDS011;9093;52.062;4.508;2022-12-19T08:09:35;6.40;;;3.95;;
17935;SDS011;9093;52.062;4.508;2022-12-19T08:12:15;4.75;;;3.03;;
17935;SDS011;9093;52.062;4.508;2022-12-19T08:14:55;6.72;;;3.38;;
17935;SDS011;9093;52.062;4.508;2022-12-19T08:17:39;7.35;;;3.17;;
17935;SDS011;9093;52.062;4.508;2022-12-19T08:20:19;10.95;;;4.05;;
17935;SDS011;9093;52.062;4.508;2022-12-19T08:23:00;4.88;;;3.17;;
17935;SDS011;9093;52.062;4.508;2022-12-19T08:25:40;5.82;;;3.70;;
17935;SDS011;9093;52.062;4.508;2022-12-19T08:28:21;5.03;;;2.83;;
17935;SDS011;9093;52.062;4.508;2022-12-19T08:33:51;7.00;;;2.85;;
17935;SDS011;9093;52.062;4.508;2022-12-19T08:36:36;5.60;;;3.35;;
17935;SDS011;9093;52.062;4.508;2022-12-19T08:39:18;7.63;;;3.43;;
17935;SDS011;9093;52.062;4.508;2022-12-19T08:41:58;8.18;;;3.42;;
17935;SDS011;9093;52.062;4.508;2022-12-19T08:44:39;6.93;;;3.53;;
17935;SDS011;9093;52.062;4.508;2022-12-19T08:47:20;7.65;;;3.65;;
17935;SDS011;9093;52.062;4.508;2022-12-19T08:50:00;8.30;;;3.70;;
17935;SDS011;9093;52.062;4.508;2022-12-19T08:52:40;7.10;;;3.25;;
17935;SDS011;9093;52.062;4.508;2022-12-19T08:55:20;5.45;;;3.03;;
17935;SDS011;9093;52.062;4.508;2022-12-19T08:58:01;7.25;;;4.15;;
17935;SDS011;9093;52.062;4.508;2022-12-19T09:00:41;8.07;;;3.50;;
17935;SDS011;9093;52.062;4.508;2022-12-19T09:03:21;9.57;;;3.47;;
17935;SDS011;9093;52.062;4.508;2022-12-19T09:06:05;7.15;;;3.78;;
17935;SDS011;9093;52.062;4.508;2022-12-19T09:11:27;6.27;;;2.80;;
17935;SDS011;9093;52.062;4.508;2022-12-19T09:14:07;7.07;;;2.90;;
17935;SDS011;9093;52.062;4.508;2022-12-19T09:16:48;11.45;;;3.33;;
17935;SDS011;9093;52.062;4.508;2022-12-19T09:19:28;5.20;;;3.03;;
17935;SDS011;9093;52.062;4.508;2022-12-19T09:22:08;10.00;;;3.00;;
17935;SDS011;9093;52.062;4.508;2022-12-19T09:24:48;4.22;;;2.88;;
17935;SDS011;9093;52.062;4.508;2022-12-19T09:27:29;10.77;;;3.63;;
17935;SDS011;9093;52.062;4.508;2022-12-19T09:30:09;9.90;;;3.88;;
17935;SDS011;9093;52.062;4.508;2022-12-19T09:32:51;10.25;;;3.45;;
17935;SDS011;9093;52.062;4.508;2022-12-19T09:35:32;8.50;;;3.92;;
17935;SDS011;9093;52.062;4.508;2022-12-19T09:38:12;5.25;;;2.78;;
17935;SDS011;9093;52.062;4.508;2022-12-19T09:43:59;5.53;;;2.85;;
17935;SDS011;9093;52.062;4.508;2022-12-19T09:46:53;11.35;;;4.28;;
17935;SDS011;9093;52.062;4.508;2022-12-19T09:49:37;5.85;;;2.88;;
17935;SDS011;9093;52.062;4.508;2022-12-19T09:52:26;6.55;;;4.28;;
17935;SDS011;9093;52.062;4.508;2022-12-19T09:55:16;6.03;;;3.13;;
17935;SDS011;9093;52.062;4.508;2022-12-19T10:00:54;5.10;;;3.05;;
17935;SDS011;9093;52.062;4.508;2022-12-19T10:03:37;10.15;;;3.15;;
17935;SDS011;9093;52.062;4.508;2022-12-19T10:06:22;11.10;;;3.70;;
17935;SDS011;9093;52.062;4.508;2022-12-19T10:09:07;8.82;;;3.38;;
17935;SDS011;9093;52.062;4.508;2022-12-19T10:11:56;8.77;;;3.88;;
17935;SDS011;9093;52.062;4.508;2022-12-19T10:21:05;7.90;;;2.80;;
17935;SDS011;9093;52.062;4.508;2022-12-19T10:30:02;6.13;;;2.85;;
17935;SDS011;9093;52.062;4.508;2022-12-19T10:35:54;10.25;;;2.60;;
17935;SDS011;9093;52.062;4.508;2022-12-19T10:38:43;10.13;;;3.35;;
17935;SDS011;9093;52.062;4.508;2022-12-19T10:41:32;5.63;;;3.00;;
17935;SDS011;9093;52.062;4.508;2022-12-19T10:44:13;6.93;;;3.30;;
17935;SDS011;9093;52.062;4.508;2022-12-19T10:46:54;6.22;;;2.97;;
17935;SDS011;9093;52.062;4.508;2022-12-19T10:49:35;5.25;;;2.72;;
17935;SDS011;9093;52.062;4.508;2022-12-19T10:52:15;2.97;;;2.13;;
17935;SDS011;9093;52.062;4.508;2022-12-19T10:58:27;4.70;;;2.80;;
17935;SDS011;9093;52.062;4.508;2022-12-19T11:01:25;4.80;;;2.63;;
17935;SDS011;9093;52.062;4.508;2022-12-19T11:09:41;3.50;;;2.40;;
17935;SDS011;9093;52.062;4.508;2022-12-19T11:12:25;6.10;;;2.90;;
17935;SDS011;9093;52.062;4.508;2022-12-19T11:15:13;8.13;;;3.28;;
17935;SDS011;9093;52.062;4.508;2022-12-19T11:18:05;4.32;;;2.63;;
17935;SDS011;9093;52.062;4.508;2022-12-19T11:21:00;6.28;;;3.42;;
17935;SDS011;9093;52.062;4.508;2022-12-19T11:23:48;5.38;;;3.10;;
17935;SDS011;9093;52.062;4.508;2022-12-19T11:26:40;8.55;;;3.45;;
17935;SDS011;9093;52.062;4.508;2022-12-19T11:29:40;6.38;;;3.15;;
17935;SDS011;9093;52.062;4.508;2022-12-19T11:32:33;6.15;;;2.92;;
17935;SDS011;9093;52.062;4.508;2022-12-19T11:38:00;4.82;;;2.90;;
17935;SDS011;9093;52.062;4.508;2022-12-19T11:40:46;6.15;;;2.63;;
17935;SDS011;9093;52.062;4.508;2022-12-19T11:43:32;7.43;;;3.28;;
17935;SDS011;9093;52.062;4.508;2022-12-19T11:46:30;5.60;;;2.58;;
17935;SDS011;9093;52.062;4.508;2022-12-19T11:49:21;5.40;;;2.55;;
17935;SDS011;9093;52.062;4.508;2022-12-19T11:52:19;10.38;;;3.22;;
17935;SDS011;9093;52.062;4.508;2022-12-19T11:58:23;7.07;;;2.97;;
17935;SDS011;9093;52.062;4.508;2022-12-19T12:07:01;4.72;;;2.88;;
17935;SDS011;9093;52.062;4.508;2022-12-19T12:09:44;8.38;;;3.10;;
17935;SDS011;9093;52.062;4.508;2022-12-19T12:12:43;5.88;;;2.75;;
17935;SDS011;9093;52.062;4.508;2022-12-19T12:15:55;7.93;;;3.17;;
17935;SDS011;9093;52.062;4.508;2022-12-19T12:21:30;5.45;;;2.97;;
17935;SDS011;9093;52.062;4.508;2022-12-19T12:35:57;4.68;;;2.78;;
17935;SDS011;9093;52.062;4.508;2022-12-19T12:38:57;3.65;;;2.53;;
17935;SDS011;9093;52.062;4.508;2022-12-19T12:44:43;5.13;;;2.53;;
17935;SDS011;9093;52.062;4.508;2022-12-19T12:47:25;6.40;;;2.75;;
17935;SDS011;9093;52.062;4.508;2022-12-19T12:50:12;2.15;;;1.55;;
17935;SDS011;9093;52.062;4.508;2022-12-19T12:52:58;4.47;;;2.40;;
17935;SDS011;9093;52.062;4.508;2022-12-19T13:01:29;4.78;;;2.67;;
17935;SDS011;9093;52.062;4.508;2022-12-19T13:07:18;6.60;;;3.10;;
17935;SDS011;9093;52.062;4.508;2022-12-19T13:10:13;5.45;;;2.92;;
17935;SDS011;9093;52.062;4.508;2022-12-19T13:13:07;6.20;;;2.45;;
17935;SDS011;9093;52.062;4.508;2022-12-19T13:15:52;6.07;;;3.33;;
17935;SDS011;9093;52.062;4.508;2022-12-19T13:18:34;4.05;;;2.67;;
17935;SDS011;9093;52.062;4.508;2022-12-19T13:21:16;3.35;;;2.40;;
17935;SDS011;9093;52.062;4.508;2022-12-19T13:24:11;4.38;;;2.58;;
17935;SDS011;9093;52.062;4.508;2022-12-19T13:26:53;6.25;;;2.63;;
17935;SDS011;9093;52.062;4.508;2022-12-19T13:29:36;7.60;;;2.85;;
17935;SDS011;9093;52.062;4.508;2022-12-19T13:41:00;5.85;;;2.78;;
17935;SDS011;9093;52.062;4.508;2022-12-19T13:44:02;4.05;;;2.30;;
17935;SDS011;9093;52.062;4.508;2022-12-19T13:47:00;5.13;;;2.55;;
17935;SDS011;9093;52.062;4.508;2022-12-19T13:49:40;6.30;;;2.70;;
17935;SDS011;9093;52.062;4.508;2022-12-19T13:52:23;4.88;;;2.45;;
17935;SDS011;9093;52.062;4.508;2022-12-19T13:55:03;7.43;;;2.30;;
17935;SDS011;9093;52.062;4.508;2022-12-19T13:57:51;4.32;;;2.42;;
17935;SDS011;9093;52.062;4.508;2022-12-19T14:00:35;3.72;;;2.47;;
17935;SDS011;9093;52.062;4.508;2022-12-19T14:03:23;8.85;;;2.33;;
17935;SDS011;9093;52.062;4.508;2022-12-19T14:06:18;3.80;;;2.10;;
17935;SDS011;9093;52.062;4.508;2022-12-19T14:12:11;7.47;;;2.20;;
17935;SDS011;9093;52.062;4.508;2022-12-19T14:15:29;3.43;;;1.97;;
17935;SDS011;9093;52.062;4.508;2022-12-19T14:18:18;6.70;;;2.33;;
17935;SDS011;9093;52.062;4.508;2022-12-19T14:21:16;7.68;;;2.95;;
17935;SDS011;9093;52.062;4.508;2022-12-19T14:24:09;3.33;;;2.20;;
17935;SDS011;9093;52.062;4.508;2022-12-19T14:26:59;4.88;;;2.50;;
17935;SDS011;9093;52.062;4.508;2022-12-19T14:29:47;6.32;;;2.13;;
17935;SDS011;9093;52.062;4.508;2022-12-19T14:32:32;3.83;;;2.00;;
17935;SDS011;9093;52.062;4.508;2022-12-19T14:35:22;8.77;;;2.50;;
17935;SDS011;9093;52.062;4.508;2022-12-19T14:38:06;4.53;;;2.55;;
17935;SDS011;9093;52.062;4.508;2022-12-19T14:40:48;3.53;;;1.80;;
17935;SDS011;9093;52.062;4.508;2022-12-19T14:43:31;5.05;;;2.42;;
17935;SDS011;9093;52.062;4.508;2022-12-19T14:49:01;3.40;;;2.07;;
17935;SDS011;9093;52.062;4.508;2022-12-19T14:52:03;6.53;;;2.30;;
17935;SDS011;9093;52.062;4.508;2022-12-19T14:54:44;2.67;;;1.55;;
17935;SDS011;9093;52.062;4.508;2022-12-19T14:58:05;2.97;;;1.70;;
17935;SDS011;9093;52.062;4.508;2022-12-19T15:00:49;5.47;;;2.25;;
17935;SDS011;9093;52.062;4.508;2022-12-19T15:03:31;2.17;;;1.55;;
17935;SDS011;9093;52.062;4.508;2022-12-19T15:06:14;2.90;;;1.77;;
17935;SDS011;9093;52.062;4.508;2022-12-19T15:11:47;4.22;;;1.88;;
17935;SDS011;9093;52.062;4.508;2022-12-19T15:14:59;2.42;;;1.75;;
17935;SDS011;9093;52.062;4.508;2022-12-19T15:17:45;3.67;;;1.83;;
17935;SDS011;9093;52.062;4.508;2022-12-19T15:20:28;3.60;;;2.00;;
17935;SDS011;9093;52.062;4.508;2022-12-19T15:23:08;5.28;;;2.38;;
17935;SDS011;9093;52.062;4.508;2022-12-19T15:25:50;9.50;;;1.95;;
17935;SDS011;9093;52.062;4.508;2022-12-19T15:28:36;4.70;;;2.27;;
17935;SDS011;9093;52.062;4.508;2022-12-19T15:31:35;6.35;;;2.35;;
17935;SDS011;9093;52.062;4.508;2022-12-19T15:34:21;4.55;;;1.98;;
17935;SDS011;9093;52.062;4.508;2022-12-19T15:37:03;9.25;;;2.10;;
17935;SDS011;9093;52.062;4.508;2022-12-19T15:39:44;4.78;;;2.60;;
17935;SDS011;9093;52.062;4.508;2022-12-19T15:42:24;14.35;;;5.00;;
17935;SDS011;9093;52.062;4.508;2022-12-19T15:45:10;5.37;;;2.80;;
17935;SDS011;9093;52.062;4.508;2022-12-19T15:47:53;3.50;;;1.88;;
17935;SDS011;9093;52.062;4.508;2022-12-19T15:50:33;3.65;;;1.90;;
17935;SDS011;9093;52.062;4.508;2022-12-19T15:53:24;3.45;;;1.67;;
17935;SDS011;9093;52.062;4.508;2022-12-19T16:02:02;3.28;;;1.90;;
17935;SDS011;9093;52.062;4.508;2022-12-19T16:04:52;6.20;;;1.83;;
17935;SDS011;9093;52.062;4.508;2022-12-19T16:07:32;3.55;;;1.77;;
17935;SDS011;9093;52.062;4.508;2022-12-19T16:10:13;2.95;;;1.98;;
17935;SDS011;9093;52.062;4.508;2022-12-19T16:12:54;3.70;;;2.10;;
17935;SDS011;9093;52.062;4.508;2022-12-19T16:15:36;5.13;;;1.80;;
17935;SDS011;9093;52.062;4.508;2022-12-19T16:18:18;4.75;;;2.28;;
17935;SDS011;9093;52.062;4.508;2022-12-19T16:20:58;3.30;;;1.85;;
17935;SDS011;9093;52.062;4.508;2022-12-19T16:23:39;2.47;;;1.65;;
17935;SDS011;9093;52.062;4.508;2022-12-19T16:29:28;5.25;;;1.95;;
17935;SDS011;9093;52.062;4.508;2022-12-19T16:32:11;8.50;;;2.08;;
17935;SDS011;9093;52.062;4.508;2022-12-19T16:34:53;2.97;;;2.10;;
17935;SDS011;9093;52.062;4.508;2022-12-19T16:37:33;5.45;;;2.15;;
17935;SDS011;9093;52.062;4.508;2022-12-19T16:40:17;3.50;;;2.05;;
17935;SDS011;9093;52.062;4.508;2022-12-19T16:43:04;5.57;;;1.92;;
17935;SDS011;9093;52.062;4.508;2022-12-19T16:45:51;4.07;;;1.92;;
17935;SDS011;9093;52.062;4.508;2022-12-19T16:48:32;4.38;;;2.13;;
17935;SDS011;9093;52.062;4.508;2022-12-19T16:51:18;3.72;;;1.90;;
17935;SDS011;9093;52.062;4.508;2022-12-19T16:54:02;6.65;;;2.30;;
17935;SDS011;9093;52.062;4.508;2022-12-19T16:56:46;5.43;;;3.00;;
17935;SDS011;9093;52.062;4.508;2022-12-19T16:59:35;36.15;;;2.60;;
17935;SDS011;9093;52.062;4.508;2022-12-19T17:02:24;6.40;;;2.30;;
17935;SDS011;9093;52.062;4.508;2022-12-19T17:05:24;6.43;;;2.63;;
17935;SDS011;9093;52.062;4.508;2022-12-19T17:08:12;5.75;;;2.42;;
17935;SDS011;9093;52.062;4.508;2022-12-19T17:10:53;2.88;;;1.85;;
17935;SDS011;9093;52.062;4.508;2022-12-19T17:13:33;9.93;;;2.72;;
17935;SDS011;9093;52.062;4.508;2022-12-19T17:16:16;4.82;;;2.08;;
17935;SDS011;9093;52.062;4.508;2022-12-19T17:18:57;6.38;;;2.67;;
17935;SDS011;9093;52.062;4.508;2022-12-19T17:21:37;3.30;;;2.20;;
17935;SDS011;9093;52.062;4.508;2022-12-19T17:24:18;3.40;;;2.20;;
17935;SDS011;9093;52.062;4.508;2022-12-19T17:26:58;6.20;;;2.50;;
17935;SDS011;9093;52.062;4.508;2022-12-19T17:29:38;4.20;;;2.45;;
17935;SDS011;9093;52.062;4.508;2022-12-19T17:32:19;7.78;;;2.30;;
17935;SDS011;9093;52.062;4.508;2022-12-19T17:34:59;5.07;;;2.30;;
17935;SDS011;9093;52.062;4.508;2022-12-19T17:37:39;2.53;;;1.90;;
17935;SDS011;9093;52.062;4.508;2022-12-19T17:40:24;3.47;;;2.00;;
17935;SDS011;9093;52.062;4.508;2022-12-19T17:43:06;3.60;;;2.13;;
17935;SDS011;9093;52.062;4.508;2022-12-19T17:45:47;5.82;;;2.78;;
17935;SDS011;9093;52.062;4.508;2022-12-19T17:48:30;5.03;;;2.55;;
17935;SDS011;9093;52.062;4.508;2022-12-19T17:51:12;2.58;;;1.40;;
17935;SDS011;9093;52.062;4.508;2022-12-19T17:53:52;4.53;;;2.10;;
17935;SDS011;9093;52.062;4.508;2022-12-19T17:56:33;11.10;;;2.15;;
17935;SDS011;9093;52.062;4.508;2022-12-19T17:59:13;4.22;;;2.03;;
17935;SDS011;9093;52.062;4.508;2022-12-19T18:01:53;4.18;;;2.53;;
17935;SDS011;9093;52.062;4.508;2022-12-19T18:04:34;7.47;;;1.75;;
17935;SDS011;9093;52.062;4.508;2022-12-19T18:07:14;10.32;;;2.88;;
17935;SDS011;9093;52.062;4.508;2022-12-19T18:09:56;5.85;;;2.45;;
17935;SDS011;9093;52.062;4.508;2022-12-19T18:12:36;3.00;;;1.77;;
17935;SDS011;9093;52.062;4.508;2022-12-19T18:15:17;2.92;;;1.77;;
17935;SDS011;9093;52.062;4.508;2022-12-19T18:17:59;4.17;;;1.90;;
17935;SDS011;9093;52.062;4.508;2022-12-19T18:20:40;4.80;;;2.00;;
17935;SDS011;9093;52.062;4.508;2022-12-19T18:23:22;6.93;;;2.05;;
17935;SDS011;9093;52.062;4.508;2022-12-19T18:26:02;4.00;;;2.20;;
17935;SDS011;9093;52.062;4.508;2022-12-19T18:28:43;6.53;;;2.10;;
17935;SDS011;9093;52.062;4.508;2022-12-19T18:31:23;7.00;;;1.95;;
17935;SDS011;9093;52.062;4.508;2022-12-19T18:34:05;3.75;;;2.25;;
17935;SDS011;9093;52.062;4.508;2022-12-19T18:36:46;6.28;;;2.28;;
17935;SDS011;9093;52.062;4.508;2022-12-19T18:39:27;4.85;;;2.65;;
17935;SDS011;9093;52.062;4.508;2022-12-19T18:42:26;6.68;;;2.38;;
17935;SDS011;9093;52.062;4.508;2022-12-19T18:45:07;5.60;;;2.30;;
17935;SDS011;9093;52.062;4.508;2022-12-19T18:47:53;4.15;;;2.10;;
17935;SDS011;9093;52.062;4.508;2022-12-19T18:50:36;2.83;;;1.98;;
17935;SDS011;9093;52.062;4.508;2022-12-19T18:53:17;4.10;;;2.13;;
17935;SDS011;9093;52.062;4.508;2022-12-19T18:56:00;4.95;;;2.58;;
17935;SDS011;9093;52.062;4.508;2022-12-19T18:58:42;8.13;;;2.10;;
17935;SDS011;9093;52.062;4.508;2022-12-19T19:01:22;7.20;;;2.05;;
17935;SDS011;9093;52.062;4.508;2022-12-19T19:04:02;2.58;;;1.90;;
17935;SDS011;9093;52.062;4.508;2022-12-19T19:06:43;4.85;;;2.60;;
17935;SDS011;9093;52.062;4.508;2022-12-19T19:09:24;4.22;;;2.03;;